Time;durP1;ratioP1;P1;durP2;ratioP2;P2;SDS_P1;SDS_P2;PMS_P1;PMS_P2;Temp;Humidity;BMP_temperature;BMP_pressure;BME280_temperature;BME280_humidity;BME280_pressure;Samples;Min_cycle;Max_cycle;Signal;HPM_P1;HPM_P2
2023/12/04 00:04:06;;;;;;;13.97;6.20;;;-3.50;99.90;;;-6.03;100.00;101024.38;10460416;27;96529;-87
2023/12/04 00:09:10;;;;;;;15.87;6.83;;;-3.60;99.90;;;-6.21;100.00;101016.22;10429779;27;96721;-87
2023/12/04 00:14:14;;;;;;;17.70;7.73;;;-3.70;99.90;;;-6.27;100.00;101029.34;10445853;27;96665;-87
2023/12/04 00:19:17;;;;;;;16.70;6.57;;;-3.80;99.90;;;-6.40;100.00;101027.13;10450741;27;98447;-87
2023/12/04 00:24:22;;;;;;;14.83;6.53;;;-3.90;99.90;;;-6.49;100.00;101015.25;10463604;27;96580;-87
2023/12/04 00:29:25;;;;;;;14.37;5.80;;;-4.10;99.90;;;-6.60;100.00;101009.53;10429653;27;97891;-87
2023/12/04 00:34:29;;;;;;;14.33;6.43;;;-4.10;99.90;;;-6.68;100.00;101017.47;10420984;27;96629;-87
2023/12/04 00:39:34;;;;;;;17.33;7.07;;;-4.20;99.90;;;-6.70;100.00;101011.50;10446943;27;99407;-87
2023/12/04 00:44:38;;;;;;;15.60;5.70;;;-4.30;99.90;;;-6.77;100.00;101016.00;10462206;27;96699;-87
2023/12/04 00:49:42;;;;;;;14.87;5.70;;;-4.30;99.90;;;-6.78;100.00;101028.94;10491074;27;96617;-87
2023/12/04 00:54:46;;;;;;;16.37;6.63;;;-4.30;99.90;;;-6.84;100.00;101031.66;10444088;27;96399;-87
2023/12/04 00:59:50;;;;;;;12.53;5.37;;;-4.40;99.90;;;-6.94;100.00;101023.31;10444519;27;96531;-87
2023/12/04 01:04:54;;;;;;;12.23;4.70;;;-4.50;99.90;;;-6.95;100.00;101021.63;10444551;27;96594;-87
2023/12/04 01:09:57;;;;;;;12.10;4.37;;;-4.50;99.90;;;-6.93;100.00;101025.00;10444833;27;96575;-87
2023/12/04 01:15:03;;;;;;;13.90;5.80;;;-4.50;99.90;;;-6.94;100.00;101018.13;10448170;27;96597;-87
2023/12/04 01:20:07;;;;;;;15.17;6.07;;;-4.50;99.90;;;-6.98;100.00;101026.84;10412287;27;96519;-87
2023/12/04 01:25:11;;;;;;;12.30;5.13;;;-4.50;99.90;;;-7.07;100.00;101020.16;10447847;27;96573;-87
2023/12/04 01:30:15;;;;;;;10.73;4.80;;;-4.60;99.90;;;-7.19;100.00;101001.53;10406401;27;96500;-87
2023/12/04 01:35:19;;;;;;;10.97;4.20;;;-4.60;99.90;;;-7.15;100.00;101023.81;10416129;27;96613;-87
2023/12/04 01:40:23;;;;;;;10.30;3.83;;;-4.70;99.90;;;-7.20;100.00;101021.31;10457223;27;96614;-87
2023/12/04 01:45:26;;;;;;;8.37;3.57;;;-4.70;99.90;;;-7.17;100.00;101038.50;10477558;27;96998;-87
2023/12/04 01:50:30;;;;;;;9.77;4.13;;;-4.80;99.90;;;-7.23;100.00;101025.72;10415934;27;96614;-87
2023/12/04 01:55:36;;;;;;;9.90;3.63;;;-4.80;99.90;;;-7.33;100.00;101010.44;10418980;27;96584;-87
2023/12/04 02:00:40;;;;;;;13.73;5.87;;;-4.80;99.90;;;-7.25;100.00;101035.25;10427391;27;96480;-86
2023/12/04 02:05:44;;;;;;;16.20;6.10;;;-4.80;99.90;;;-7.29;100.00;101048.22;10440574;27;96731;-87
2023/12/04 02:10:49;;;;;;;13.63;4.80;;;-4.80;99.90;;;-7.29;100.00;101045.63;10433546;27;96621;-87
2023/12/04 02:15:55;;;;;;;14.37;6.07;;;-4.90;99.90;;;-7.33;100.00;101044.00;10432015;27;97252;-87
2023/12/04 02:21:03;;;;;;;13.87;6.13;;;-4.90;99.90;;;-7.33;100.00;101043.16;10445827;27;96638;-87
2023/12/04 02:26:17;;;;;;;15.17;5.83;;;-4.90;99.90;;;-7.32;100.00;101053.44;10451608;27;96469;-87
2023/12/04 02:31:23;;;;;;;15.90;5.87;;;-4.90;99.90;;;-7.34;100.00;101049.19;10467460;27;97460;-87
2023/12/04 02:36:30;;;;;;;12.93;5.10;;;-4.90;99.90;;;-7.37;100.00;101044.13;10409203;27;96629;-87
2023/12/04 02:41:35;;;;;;;15.80;4.37;;;-4.90;99.90;;;-7.38;100.00;101047.56;10449666;27;96548;-87
2023/12/04 02:46:39;;;;;;;13.40;6.23;;;-4.90;99.90;;;-7.41;100.00;101037.31;10449672;27;96700;-87
2023/12/04 02:51:42;;;;;;;11.80;5.50;;;-5.00;99.90;;;-7.42;100.00;101046.81;10414412;27;96724;-87
2023/12/04 02:56:46;;;;;;;15.93;6.00;;;-5.00;99.90;;;-7.44;100.00;101048.53;10430742;27;96492;-87
2023/12/04 03:01:50;;;;;;;12.40;5.43;;;-5.00;99.90;;;-7.46;100.00;101047.75;10390814;27;96602;-87
2023/12/04 03:06:54;;;;;;;19.17;8.23;;;-5.00;99.90;;;-7.46;100.00;101055.47;10437329;27;96583;-87
2023/12/04 03:11:58;;;;;;;17.63;6.47;;;-5.00;99.90;;;-7.56;100.00;101047.09;10432061;27;96696;-87
2023/12/04 03:17:02;;;;;;;16.17;6.73;;;-5.00;99.90;;;-7.48;100.00;101070.16;10451864;27;96577;-87
2023/12/04 03:22:07;;;;;;;14.70;5.77;;;-5.00;99.90;;;-7.50;100.00;101059.00;10444445;27;96589;-87
2023/12/04 03:27:10;;;;;;;12.50;4.83;;;-5.00;99.90;;;-7.44;100.00;101063.19;10388589;27;97781;-87
2023/12/04 03:32:14;;;;;;;13.57;4.97;;;-5.00;99.90;;;-7.42;100.00;101058.88;10407713;27;96574;-87
2023/12/04 03:37:18;;;;;;;16.60;5.80;;;-5.00;99.90;;;-7.45;100.00;101056.34;10467895;27;96474;-87
2023/12/04 03:42:22;;;;;;;12.90;5.63;;;-5.00;99.90;;;-7.48;100.00;101061.56;10430769;27;96627;-87
2023/12/04 03:47:25;;;;;;;11.23;5.17;;;-5.00;99.90;;;-7.50;100.00;101076.22;10437235;27;97127;-87
2023/12/04 03:52:30;;;;;;;15.57;5.63;;;-5.00;99.90;;;-7.52;100.00;101071.09;10444278;27;96628;-87
2023/12/04 03:57:34;;;;;;;15.73;4.97;;;-5.10;99.90;;;-7.52;100.00;101072.84;10421428;27;96668;-87
2023/12/04 04:02:40;;;;;;;11.00;4.90;;;-5.10;99.90;;;-7.52;100.00;101059.94;10427690;27;96518;-87
2023/12/04 04:07:46;;;;;;;10.50;5.57;;;-5.10;99.90;;;-7.50;100.00;101069.31;10437919;27;97856;-87
2023/12/04 04:12:50;;;;;;;11.80;4.77;;;-5.10;99.90;;;-7.46;100.00;101070.97;10487775;27;96545;-88
2023/12/04 04:17:53;;;;;;;9.80;4.90;;;-5.00;99.90;;;-7.45;100.00;101062.34;10446444;27;98143;-87
2023/12/04 04:22:57;;;;;;;10.23;5.13;;;-5.00;99.90;;;-7.44;100.00;101060.59;10448363;27;96957;-87
2023/12/04 04:28:01;;;;;;;13.53;5.37;;;-5.00;99.90;;;-7.44;100.00;101069.19;10465899;27;97453;-87
2023/12/04 04:33:05;;;;;;;44.87;12.47;;;-5.00;99.90;;;-7.50;100.00;101069.31;10459739;27;96524;-87
2023/12/04 04:38:09;;;;;;;36.60;12.10;;;-5.00;99.90;;;-7.50;100.00;101074.50;10439768;27;96547;-88
2023/12/04 04:43:13;;;;;;;25.07;8.77;;;-5.10;99.90;;;-7.57;100.00;101062.59;10486434;27;96578;-87
2023/12/04 04:48:17;;;;;;;60.13;17.63;;;-5.10;99.90;;;-7.67;100.00;101072.28;10448557;27;96620;-88
2023/12/04 04:53:20;;;;;;;30.07;10.97;;;-5.20;99.90;;;-7.81;100.00;101067.38;10449470;27;96570;-88
2023/12/04 04:58:24;;;;;;;24.93;8.73;;;-5.30;99.90;;;-7.84;100.00;101075.19;10427767;27;96543;-88
2023/12/04 05:03:28;;;;;;;28.03;9.87;;;-5.40;99.90;;;-7.94;100.00;101088.31;10417796;27;96623;-87
2023/12/04 05:08:32;;;;;;;26.87;8.90;;;-5.40;99.90;;;-8.03;100.00;101089.34;10412822;27;96625;-87
2023/12/04 05:13:35;;;;;;;20.27;6.97;;;-5.50;99.90;;;-8.10;100.00;101085.16;10419435;27;97813;-87
2023/12/04 05:18:39;;;;;;;22.30;7.47;;;-5.60;99.90;;;-8.13;100.00;101091.22;10453209;27;96540;-87
2023/12/04 05:23:43;;;;;;;21.77;8.07;;;-5.60;99.90;;;-8.22;100.00;101085.38;10454857;27;96626;-87
2023/12/04 05:28:47;;;;;;;18.70;8.17;;;-5.70;99.90;;;-8.29;100.00;101081.22;10439738;27;96524;-87
2023/12/04 05:33:51;;;;;;;14.17;6.57;;;-5.70;99.90;;;-8.33;100.00;101087.31;10432849;27;97383;-87
2023/12/04 05:38:55;;;;;;;14.30;5.97;;;-5.80;99.90;;;-8.41;100.00;101078.00;10433674;27;96608;-84
2023/12/04 05:44:01;;;;;;;16.93;5.40;;;-5.80;99.90;;;-8.43;100.00;101084.06;10455471;27;96674;-87
2023/12/04 05:49:05;;;;;;;11.33;4.97;;;-5.90;99.90;;;-8.48;100.00;101091.88;10449341;27;96534;-86
2023/12/04 05:54:09;;;;;;;15.00;6.63;;;-5.90;99.90;;;-8.46;100.00;101090.13;10445841;27;96563;-87
2023/12/04 05:59:13;;;;;;;16.80;7.80;;;-5.90;99.90;;;-8.53;100.00;101096.25;10431843;27;96700;-87
2023/12/04 06:04:16;;;;;;;20.83;8.70;;;-6.00;99.90;;;-8.50;100.00;101101.38;10465737;27;97244;-87
2023/12/04 06:09:20;;;;;;;10.87;5.17;;;-6.00;99.90;;;-8.45;100.00;101093.56;10453502;27;97786;-87
2023/12/04 06:14:24;;;;;;;31.73;16.90;;;-6.00;99.90;;;-8.51;100.00;101078.22;10433997;27;98436;-87
2023/12/04 06:19:29;;;;;;;14.30;5.97;;;-5.90;99.90;;;-8.36;100.00;101096.81;10489070;27;96614;-86
2023/12/04 06:24:33;;;;;;;14.33;6.10;;;-5.90;99.90;;;-8.22;100.00;101098.28;10439095;27;96595;-87
2023/12/04 06:29:37;;;;;;;15.30;5.87;;;-5.80;99.90;;;-8.16;100.00;101082.69;10468604;27;96874;-87
2023/12/04 06:34:41;;;;;;;18.90;8.00;;;-5.70;99.90;;;-8.10;100.00;101100.63;10422284;27;99014;-87
2023/12/04 06:39:48;;;;;;;37.90;13.17;;;-5.60;99.90;;;-7.99;100.00;101105.59;10427636;27;97467;-87
2023/12/04 06:44:52;;;;;;;20.80;8.47;;;-5.60;99.90;;;-7.68;100.00;101121.34;10446588;27;96606;-88
2023/12/04 06:49:56;;;;;;;14.50;6.47;;;-5.40;99.90;;;-7.37;100.00;101121.59;10434594;27;97717;-89
2023/12/04 06:55:01;;;;;;;24.93;8.40;;;-5.10;99.90;;;-7.04;100.00;101122.56;10431815;27;97157;-88
2023/12/04 07:00:07;;;;;;;23.60;9.57;;;-4.90;99.90;;;-6.77;100.00;101113.38;10485910;27;96762;-88
2023/12/04 07:05:25;;;;;;;32.13;12.80;;;-4.60;99.90;;;-6.41;100.00;101116.78;10438042;27;96620;-88
2023/12/04 07:10:29;;;;;;;33.23;12.83;;;-4.30;99.90;;;-6.05;100.00;101129.69;10455953;27;96515;-87
2023/12/04 07:15:37;;;;;;;41.27;14.67;;;-4.10;99.90;;;-5.85;100.00;101111.84;10422884;27;96573;-88
2023/12/04 07:20:41;;;;;;;34.70;12.23;;;-3.80;99.90;;;-5.51;100.00;101119.53;10418420;27;96600;-88
2023/12/04 07:25:46;;;;;;;24.30;10.87;;;-3.60;99.90;;;-5.13;100.00;101108.03;10432803;27;96733;-88
2023/12/04 07:30:49;;;;;;;18.37;8.13;;;-3.30;99.90;;;-4.63;100.00;101121.16;10454817;27;96979;-88
2023/12/04 07:35:53;;;;;;;14.03;7.20;;;-2.90;99.90;;;-4.13;100.00;101113.47;10424274;27;96659;-89
2023/12/04 07:40:57;;;;;;;23.53;9.63;;;-2.50;99.90;;;-3.70;100.00;101130.16;10461880;27;96586;-88
2023/12/04 07:46:01;;;;;;;20.33;9.33;;;-2.20;99.90;;;-3.32;100.00;101130.50;10407647;27;97660;-90
2023/12/04 07:51:05;;;;;;;25.03;11.40;;;-1.80;99.90;;;-2.99;100.00;101121.44;10407990;28;96566;-88
2023/12/04 07:56:11;;;;;;;28.70;12.50;;;-1.40;99.90;;;-2.54;100.00;101112.72;10443648;27;97134;-89
2023/12/04 08:01:15;;;;;;;23.13;11.03;;;-1.00;99.90;;;-1.97;100.00;101118.19;10459630;27;98353;-90
2023/12/04 08:06:19;;;;;;;19.97;9.70;;;-0.50;99.90;;;-1.44;100.00;101117.56;10419395;27;96724;-90
2023/12/04 08:11:23;;;;;;;23.97;10.77;;;0.00;99.90;;;-0.84;100.00;101113.06;10459521;27;96886;-90
2023/12/04 08:16:28;;;;;;;26.97;11.20;;;0.40;99.90;;;-0.48;100.00;101105.25;10433952;27;96714;-90
2023/12/04 08:21:32;;;;;;;24.87;10.80;;;0.80;99.90;;;-0.20;100.00;101099.47;10426457;27;96891;-91
2023/12/04 08:26:36;;;;;;;18.83;9.23;;;1.10;99.90;;;0.16;100.00;101103.75;10439246;27;97746;-90
2023/12/04 08:31:40;;;;;;;24.17;11.83;;;1.40;99.90;;;0.48;100.00;101118.63;10421063;27;96572;-91
2023/12/04 08:36:45;;;;;;;23.97;11.03;;;1.70;99.90;;;0.83;100.00;101115.03;10451577;27;96500;-90
2023/12/04 08:41:49;;;;;;;21.90;11.03;;;2.00;99.90;;;0.90;100.00;101108.53;10469737;27;96671;-90
2023/12/04 08:47:04;;;;;;;17.60;9.13;;;2.20;99.90;;;0.63;100.00;101106.47;10405320;28;96598;-89
2023/12/04 08:52:08;;;;;;;17.60;8.87;;;2.10;99.90;;;-0.05;100.00;101098.72;10403688;27;96496;-88
2023/12/04 08:57:12;;;;;;;20.13;9.33;;;1.70;99.90;;;-0.68;100.00;101107.94;10398093;27;96986;-88
2023/12/04 09:02:16;;;;;;;17.40;8.33;;;1.40;99.90;;;-0.98;100.00;101105.88;10416118;27;97882;-90
2023/12/04 09:07:20;;;;;;;18.13;9.50;;;1.10;99.90;;;-0.65;100.00;101100.84;10413236;27;96680;-92
2023/12/04 09:12:27;;;;;;;20.97;9.73;;;1.50;99.90;;;0.05;100.00;101101.69;10416763;27;96691;-90
2023/12/04 09:17:30;;;;;;;18.67;9.57;;;2.00;99.90;;;0.70;100.00;101113.06;10427605;27;96492;-90
2023/12/04 09:22:42;;;;;;;21.13;10.00;;;2.50;99.90;;;1.07;100.00;101100.59;10437119;27;97823;-90
2023/12/04 09:27:55;;;;;;;33.73;17.03;;;2.90;99.90;;;1.22;95.33;101104.16;10429405;27;96590;-90
2023/12/04 09:32:58;;;;;;;21.90;10.53;;;3.10;99.90;;;0.94;95.54;101089.13;10439587;27;96384;-91
2023/12/04 09:38:02;;;;;;;15.70;8.53;;;2.90;99.90;;;0.52;92.96;101087.91;10432735;27;96646;-89
2023/12/04 09:43:06;;;;;;;18.63;7.63;;;2.50;99.90;;;0.08;94.36;101080.63;10431672;27;97327;-90
2023/12/04 09:48:11;;;;;;;13.37;7.77;;;2.10;99.90;;;-0.28;94.52;101071.13;10433193;27;98080;-89
2023/12/04 09:53:15;;;;;;;15.40;7.57;;;1.80;99.90;;;-0.58;92.93;101057.00;10457578;27;97128;-89
2023/12/04 09:58:21;;;;;;;18.97;9.67;;;1.50;99.90;;;-0.76;96.78;101050.91;10415990;27;96594;-89
2023/12/04 10:03:25;;;;;;;22.17;10.13;;;1.30;99.90;;;-0.84;99.63;101058.25;10431879;27;96600;-90
2023/12/04 10:08:29;;;;;;;15.63;7.67;;;1.20;99.90;;;-0.92;100.00;101045.56;10407121;27;96464;-89
2023/12/04 10:13:32;;;;;;;17.43;8.20;;;1.10;99.90;;;-0.99;99.13;101031.16;10416652;27;97351;-89
2023/12/04 10:18:56;;;;;;;14.90;7.00;;;1.10;99.90;;;-0.99;95.47;101014.66;10432721;27;97526;-90
2023/12/04 10:23:59;;;;;;;16.30;7.37;;;1.00;99.90;;;-1.00;91.55;101013.81;10434357;27;96430;-90
2023/12/04 10:29:05;;;;;;;12.30;6.03;;;1.10;99.90;;;-0.96;94.45;101014.47;10452662;27;96553;-91
2023/12/04 10:34:11;;;;;;;12.87;6.57;;;1.10;99.90;;;-0.85;95.63;101007.81;10428614;27;96555;-90
2023/12/04 10:39:17;;;;;;;13.73;5.80;;;1.20;99.90;;;-0.65;96.05;100990.34;10436806;27;97732;-89
2023/12/04 10:44:22;;;;;;;10.20;5.30;;;1.50;99.90;;;0.02;94.13;100993.88;10426717;27;96703;-88
2023/12/04 10:49:29;;;;;;;12.73;5.47;;;2.20;99.90;;;0.31;90.23;100984.47;10442501;27;97113;-91
2023/12/04 10:54:32;;;;;;;10.47;5.33;;;2.50;99.90;;;0.35;86.41;100967.66;10416372;27;98070;-88
2023/12/04 10:59:38;;;;;;;11.37;5.37;;;2.60;99.90;;;0.49;84.57;100967.78;10404765;27;96907;-88
2023/12/04 11:04:42;;;;;;;9.67;5.63;;;2.60;99.90;;;0.31;83.70;100974.84;10398608;27;96706;-90
2023/12/04 11:09:48;;;;;;;9.87;4.70;;;2.40;99.90;;;0.16;83.92;100970.44;10410792;27;97420;-90
2023/12/04 11:15:00;;;;;;;13.47;8.17;;;2.20;99.90;;;0.01;84.85;100964.28;10426964;27;96939;-88
2023/12/04 11:20:15;;;;;;;10.05;4.97;;;2.10;99.90;;;-0.08;84.13;100943.84;10425675;27;96834;-88
2023/12/04 11:25:22;;;;;;;12.93;5.87;;;2.00;99.90;;;-0.18;84.06;100942.66;10444591;27;96513;-88
2023/12/04 11:30:29;;;;;;;10.83;4.93;;;1.90;99.90;;;-0.22;84.42;100938.53;10413615;28;96570;-88
2023/12/04 11:35:34;;;;;;;15.67;6.23;;;1.80;99.90;;;-0.27;83.83;100937.00;10450970;27;96572;-87
2023/12/04 11:40:37;;;;;;;13.67;5.73;;;1.80;99.90;;;-0.35;83.10;100923.50;10474659;27;96604;-90
2023/12/04 11:45:41;;;;;;;13.50;6.33;;;1.80;99.90;;;-0.33;84.65;100920.81;10447776;27;96477;-87
2023/12/04 11:50:45;;;;;;;11.50;6.17;;;1.70;99.90;;;-0.33;84.64;100910.34;10483949;27;96549;-87
2023/12/04 11:55:49;;;;;;;17.23;6.80;;;1.70;99.90;;;-0.38;83.38;100905.38;10433323;27;96570;-87
2023/12/04 12:00:55;;;;;;;12.50;5.77;;;1.70;99.90;;;-0.32;84.67;100910.28;10399585;27;96521;-87
2023/12/04 12:05:59;;;;;;;16.03;6.50;;;1.70;99.90;;;-0.34;85.55;100898.22;10399409;27;96449;-87
2023/12/04 12:11:03;;;;;;;21.93;7.77;;;1.80;99.90;;;-0.34;84.80;100887.78;10466449;27;96437;-87
2023/12/04 12:16:08;;;;;;;14.43;6.87;;;1.80;99.90;;;-0.29;85.11;100886.63;10420338;27;97189;-87
2023/12/04 12:21:12;;;;;;;19.73;8.90;;;1.80;99.90;;;-0.27;81.64;100879.53;10398913;28;97114;-87
2023/12/04 12:26:15;;;;;;;14.67;8.63;;;1.80;99.90;;;-0.27;83.47;100850.81;10400265;27;96557;-87
2023/12/04 12:31:19;;;;;;;9.60;5.30;;;1.90;99.90;;;-0.20;84.15;100842.63;10385891;27;96442;-87
2023/12/04 12:36:23;;;;;;;12.07;5.27;;;1.90;99.90;;;-0.20;85.30;100845.25;10438185;27;97925;-87
2023/12/04 12:41:27;;;;;;;17.60;7.13;;;1.90;99.90;;;-0.25;85.19;100834.19;10432261;27;96529;-87
2023/12/04 12:46:30;;;;;;;19.37;10.03;;;1.90;99.90;;;-0.27;84.67;100837.75;10465836;27;96405;-86
2023/12/04 12:51:34;;;;;;;13.47;6.40;;;1.80;99.90;;;-0.31;85.24;100838.81;10480380;27;96492;-87
2023/12/04 12:56:37;;;;;;;14.67;5.70;;;1.80;99.90;;;-0.33;86.27;100845.06;10430903;27;96616;-87
2023/12/04 13:01:41;;;;;;;11.37;5.40;;;1.80;99.90;;;-0.38;86.67;100840.09;10446821;27;98278;-87
2023/12/04 13:06:45;;;;;;;9.93;5.40;;;1.80;99.90;;;-0.43;87.37;100822.97;10438518;27;97311;-86
2023/12/04 13:11:51;;;;;;;14.23;6.40;;;1.80;99.90;;;-0.41;87.86;100829.81;10460920;27;96822;-87
2023/12/04 13:16:56;;;;;;;11.57;5.27;;;1.70;99.90;;;-0.50;88.47;100824.25;10399586;27;96667;-86
2023/12/04 13:21:59;;;;;;;11.07;5.73;;;1.70;99.90;;;-0.51;88.63;100826.00;10413664;27;96547;-86
2023/12/04 13:27:03;;;;;;;15.23;6.43;;;1.70;99.90;;;-0.53;89.21;100820.03;10411256;27;96492;-87
2023/12/04 13:32:07;;;;;;;12.97;5.63;;;1.60;99.90;;;-0.50;90.41;100814.63;10441285;27;96643;-87
2023/12/04 13:37:11;;;;;;;10.87;5.43;;;1.60;99.90;;;-0.57;89.60;100803.69;10439737;27;96957;-87
2023/12/04 13:47:37;;;;;;;14.37;6.07;;;1.60;99.90;;;-0.60;89.99;100814.31;10411949;27;96811;-87
2023/12/04 13:52:42;;;;;;;10.87;5.50;;;1.50;99.90;;;-0.68;90.59;100794.72;10408677;27;96857;-87
2023/12/04 14:03:04;;;;;;;12.27;5.53;;;1.40;99.90;;;-0.73;91.76;100796.75;10421240;27;98196;-87
2023/12/04 14:08:11;;;;;;;11.80;5.23;;;1.40;99.90;;;-0.84;92.90;100795.56;10438199;27;96647;-87
2023/12/04 14:13:14;;;;;;;24.80;9.23;;;1.30;99.90;;;-0.88;93.39;100804.47;10455857;27;96628;-87
2023/12/04 14:18:18;;;;;;;18.47;7.73;;;1.30;99.90;;;-0.96;94.41;100798.81;10467315;27;96682;-87
2023/12/04 14:23:22;;;;;;;18.40;8.23;;;1.30;99.90;;;-0.96;94.28;100792.72;10418655;27;96824;-88
2023/12/04 14:28:25;;;;;;;16.70;7.30;;;1.20;99.90;;;-1.03;94.77;100786.97;10430804;27;96579;-88
2023/12/04 14:33:38;;;;;;;17.83;7.73;;;1.10;99.90;;;-1.16;95.14;100773.75;10439649;27;96620;-87
2023/12/04 14:38:45;;;;;;;14.60;7.07;;;1.00;99.90;;;-1.15;95.38;100777.19;10436797;27;96541;-88
2023/12/04 14:43:49;;;;;;;14.43;7.23;;;1.00;99.90;;;-1.21;95.76;100769.69;10406939;27;97077;-88
2023/12/04 14:48:53;;;;;;;11.87;6.93;;;0.90;99.90;;;-1.32;97.23;100751.13;10422440;27;96521;-88
2023/12/04 14:54:14;;;;;;;16.47;6.70;;;0.80;99.90;;;-1.36;97.81;100763.50;10407809;27;96711;-87
2023/12/04 15:01:13;;;;;;;13.40;6.45;;;0.80;99.90;;;-1.39;99.05;100766.25;10404589;28;96723;-88
2023/12/04 15:16:20;;;;;;;70.10;27.40;;;0.70;99.90;;;-1.50;100.00;100772.03;10337935;27;96711;-88
2023/12/04 15:21:24;;;;;;;44.23;20.90;;;0.60;99.90;;;-1.49;100.00;100771.09;10380749;28;96638;-87
2023/12/04 15:26:28;;;;;;;54.73;26.13;;;0.60;99.90;;;-1.58;100.00;100745.47;10410377;27;96659;-88
2023/12/04 15:31:32;;;;;;;27.90;13.83;;;0.60;99.90;;;-1.51;100.00;100746.00;10423472;27;97929;-87
2023/12/04 15:36:36;;;;;;;28.43;12.00;;;0.60;99.90;;;-1.55;100.00;100740.13;10400960;27;96889;-88
2023/12/04 15:41:40;;;;;;;52.87;14.30;;;0.60;99.90;;;-1.57;100.00;100728.91;10445585;27;96637;-87
2023/12/04 15:46:44;;;;;;;35.57;12.10;;;0.50;99.90;;;-1.57;100.00;100736.75;10458234;27;96453;-87
2023/12/04 15:51:47;;;;;;;51.63;14.00;;;0.60;99.90;;;-1.57;100.00;100738.50;10444388;27;96520;-87
2023/12/04 15:56:51;;;;;;;42.67;13.40;;;0.60;99.90;;;-1.64;100.00;100744.03;10501463;27;96962;-88
2023/12/04 16:01:54;;;;;;;24.67;10.03;;;0.50;99.90;;;-1.62;100.00;100742.22;10483887;27;96667;-88
2023/12/04 16:06:58;;;;;;;18.93;8.30;;;0.50;99.90;;;-1.68;100.00;100733.81;10463080;27;96542;-88
2023/12/04 16:12:02;;;;;;;19.97;8.07;;;0.50;99.90;;;-1.78;100.00;100717.00;10419483;27;96510;-87
2023/12/04 16:17:06;;;;;;;21.60;9.10;;;0.40;99.90;;;-1.71;100.00;100739.22;10419487;27;97195;-88
2023/12/04 16:22:10;;;;;;;20.50;9.93;;;0.40;99.90;;;-1.75;100.00;100737.66;10424776;27;96485;-88
2023/12/04 16:27:14;;;;;;;19.43;8.50;;;0.40;99.90;;;-1.78;100.00;100735.22;10422132;27;97060;-87
2023/12/04 16:32:18;;;;;;;15.90;8.33;;;0.30;99.90;;;-1.83;100.00;100726.78;10421519;27;96590;-86
2023/12/04 16:37:22;;;;;;;20.03;9.43;;;0.30;99.90;;;-1.85;100.00;100739.06;10423360;27;97647;-87
2023/12/04 16:42:26;;;;;;;19.33;8.70;;;0.20;99.90;;;-1.90;100.00;100728.84;10409199;27;96955;-87
2023/12/04 16:47:31;;;;;;;18.43;8.27;;;0.20;99.90;;;-1.98;100.00;100726.63;10395358;27;96960;-87
2023/12/04 16:52:36;;;;;;;15.63;7.23;;;0.10;99.90;;;-2.03;100.00;100727.78;10447873;27;96603;-88
2023/12/04 16:57:39;;;;;;;21.30;9.60;;;0.00;99.90;;;-2.11;100.00;100706.47;10468136;27;96598;-88
2023/12/04 17:02:44;;;;;;;22.77;10.40;;;0.00;99.90;;;-2.17;100.00;100705.00;10435735;27;96489;-86
2023/12/04 17:07:47;;;;;;;24.60;9.37;;;-0.10;99.90;;;-2.23;100.00;100698.31;10439218;27;96587;-87
2023/12/04 17:12:51;;;;;;;23.20;8.70;;;-0.10;99.90;;;-2.26;100.00;100713.25;10399089;27;96599;-86
2023/12/04 17:17:56;;;;;;;16.93;7.37;;;-0.20;99.90;;;-2.36;100.00;100705.03;10389539;27;98398;-86
2023/12/04 17:23:02;;;;;;;17.30;7.67;;;-0.30;99.90;;;-2.43;100.00;100698.44;10408912;27;96540;-86
2023/12/04 17:28:05;;;;;;;18.90;6.93;;;-0.30;99.90;;;-2.59;100.00;100680.09;10453152;27;97005;-86
2023/12/04 17:33:09;;;;;;;19.83;8.10;;;-0.40;99.90;;;-2.52;100.00;100699.75;10427789;27;97091;-87
2023/12/04 17:38:13;;;;;;;17.00;7.43;;;-0.40;99.90;;;-2.59;100.00;100698.31;10455933;27;96508;-87
2023/12/04 17:43:17;;;;;;;19.20;8.23;;;-0.50;99.90;;;-2.63;100.00;100695.97;10431846;27;98034;-86
2023/12/04 17:48:21;;;;;;;17.20;7.70;;;-0.50;99.90;;;-2.64;100.00;100702.03;10423068;27;97008;-87
2023/12/04 17:53:25;;;;;;;20.23;9.00;;;-0.50;99.90;;;-2.68;100.00;100672.75;10457698;27;98141;-87
2023/12/04 17:58:29;;;;;;;21.10;8.20;;;-0.60;99.90;;;-2.67;100.00;100681.41;10432463;27;96721;-87
2023/12/04 18:03:35;;;;;;;20.33;7.70;;;-0.50;99.90;;;-2.68;100.00;100688.34;10420862;27;98139;-87
2023/12/04 18:08:42;;;;;;;30.30;10.47;;;-0.50;99.90;;;-2.67;100.00;100674.44;10454016;27;96783;-87
2023/12/04 18:13:47;;;;;;;26.57;10.57;;;-0.50;99.90;;;-2.63;100.00;100660.38;10424377;27;96629;-89
2023/12/04 18:18:50;;;;;;;26.47;10.10;;;-0.50;99.90;;;-2.61;100.00;100666.34;10417697;27;96767;-87
2023/12/04 18:23:54;;;;;;;24.73;9.90;;;-0.50;99.90;;;-2.65;100.00;100663.94;10415823;27;96722;-87
2023/12/04 18:28:58;;;;;;;32.43;10.73;;;-0.40;99.90;;;-2.61;100.00;100666.34;10443110;27;97047;-87
2023/12/04 18:34:02;;;;;;;25.73;9.70;;;-0.50;99.90;;;-2.66;100.00;100651.84;10429694;27;96535;-87
2023/12/04 18:39:08;;;;;;;23.60;9.77;;;-0.50;99.90;;;-2.67;100.00;100645.81;10450474;27;96630;-86
2023/12/04 18:44:12;;;;;;;20.67;8.90;;;-0.50;99.90;;;-2.76;100.00;100625.41;10431939;27;96839;-86
2023/12/04 18:49:17;;;;;;;22.00;9.43;;;-0.50;99.90;;;-2.84;100.00;100615.38;10428692;27;98051;-87
2023/12/04 18:54:20;;;;;;;18.73;8.20;;;-0.60;99.90;;;-2.78;100.00;100624.66;10446659;27;96680;-87
2023/12/04 18:59:24;;;;;;;22.80;8.63;;;-0.60;99.90;;;-2.79;100.00;100625.59;10435602;27;96774;-87
2023/12/04 19:04:28;;;;;;;23.07;9.13;;;-0.60;99.90;;;-2.80;100.00;100622.16;10422991;27;96687;-87
2023/12/04 19:09:32;;;;;;;20.30;9.33;;;-0.60;99.90;;;-2.80;100.00;100619.53;10420834;27;96543;-87
2023/12/04 19:14:38;;;;;;;19.67;8.03;;;-0.60;99.90;;;-2.81;100.00;100628.25;10445406;27;97707;-88
2023/12/04 19:19:44;;;;;;;16.43;7.70;;;-0.60;99.90;;;-2.86;100.00;100611.19;10429826;27;96567;-88
2023/12/04 19:25:00;;;;;;;25.30;9.57;;;-0.60;99.90;;;-2.91;100.00;100607.97;10424564;27;96728;-87
2023/12/04 19:30:05;;;;;;;19.93;9.33;;;-0.70;99.90;;;-2.92;100.00;100627.09;10408730;27;96672;-87
2023/12/04 19:35:09;;;;;;;25.23;10.97;;;-0.70;99.90;;;-2.93;100.00;100654.00;10446479;27;96606;-88
2023/12/04 19:40:14;;;;;;;18.50;8.37;;;-0.70;99.90;;;-3.00;100.00;100622.22;10418292;27;98215;-88
2023/12/04 19:45:17;;;;;;;19.47;7.93;;;-0.80;99.90;;;-3.03;100.00;100594.63;10418879;27;96811;-88
2023/12/04 19:50:21;;;;;;;17.63;8.00;;;-0.80;99.90;;;-3.05;100.00;100587.81;10412870;27;97180;-87
2023/12/04 19:55:25;;;;;;;15.20;7.57;;;-0.80;99.90;;;-3.07;100.00;100598.25;10444928;27;96595;-87
2023/12/04 20:00:29;;;;;;;20.00;10.33;;;-0.80;99.90;;;-3.12;100.00;100589.84;10442250;27;96566;-87
2023/12/04 20:05:35;;;;;;;26.00;11.63;;;-0.90;99.90;;;-3.13;100.00;100582.94;10410667;27;96537;-87
2023/12/04 20:10:39;;;;;;;20.40;9.17;;;-0.90;99.90;;;-3.17;100.00;100585.78;10452742;27;96877;-87
2023/12/04 20:15:45;;;;;;;19.37;9.00;;;-0.90;99.90;;;-3.19;100.00;100592.78;10419605;27;96587;-87
2023/12/04 20:20:49;;;;;;;27.73;11.60;;;-1.00;99.90;;;-3.21;100.00;100598.06;10434705;27;96643;-87
2023/12/04 20:25:53;;;;;;;22.60;9.77;;;-1.00;99.90;;;-3.26;100.00;100564.47;10465242;27;96573;-87
2023/12/04 20:31:01;;;;;;;19.93;8.57;;;-1.00;99.90;;;-3.39;100.00;100546.94;10446118;27;96809;-87
2023/12/04 20:36:07;;;;;;;20.93;9.30;;;-1.00;99.90;;;-3.34;100.00;100551.00;10441453;27;96614;-87
2023/12/04 20:41:11;;;;;;;21.10;8.80;;;-1.00;99.90;;;-3.29;100.00;100556.84;10387108;27;99182;-87
2023/12/04 20:46:15;;;;;;;20.77;8.47;;;-1.00;99.90;;;-3.35;100.00;100532.91;10334114;28;96569;-87
2023/12/04 20:51:19;;;;;;;25.03;10.07;;;-1.10;99.90;;;-3.27;100.00;100539.41;10355632;28;96697;-87
2023/12/04 20:56:23;;;;;;;21.43;8.97;;;-1.00;99.90;;;-3.28;100.00;100522.13;10322997;28;96572;-87
2023/12/04 21:01:29;;;;;;;17.57;8.23;;;-1.00;99.90;;;-3.27;100.00;100509.97;10345150;28;96836;-87